createdAt,value
2017-06-15T00:00:28.626Z,0
2017-06-15T00:01:28.632Z,0
2017-06-15T00:02:28.717Z,0
2017-06-15T00:03:28.630Z,0
2017-06-15T00:04:28.726Z,0
2017-06-15T00:05:28.691Z,0
2017-06-15T00:06:28.691Z,0
2017-06-15T00:07:28.690Z,0
2017-06-15T00:08:28.690Z,0
2017-06-15T00:09:28.688Z,0
2017-06-15T00:10:28.688Z,0
2017-06-15T00:11:28.690Z,0
2017-06-15T00:12:28.690Z,0
2017-06-15T00:13:28.690Z,0
2017-06-15T00:14:28.694Z,0
2017-06-15T00:15:28.708Z,0
2017-06-15T00:16:28.708Z,0
2017-06-15T00:17:28.710Z,0
2017-06-15T00:18:28.707Z,0
2017-06-15T00:19:28.722Z,0
2017-06-15T00:20:28.720Z,0
2017-06-15T00:21:28.714Z,0
2017-06-15T00:22:28.710Z,0
2017-06-15T00:23:28.712Z,0
2017-06-15T00:24:28.713Z,0
2017-06-15T00:25:28.710Z,0
2017-06-15T00:26:28.727Z,0
2017-06-15T00:27:28.720Z,0
2017-06-15T00:28:28.734Z,0
2017-06-15T00:29:28.648Z,0
2017-06-15T00:30:28.645Z,0
2017-06-15T00:31:28.730Z,0
2017-06-15T00:32:28.730Z,0
2017-06-15T00:33:28.729Z,0
2017-06-15T00:34:28.724Z,0
2017-06-15T00:35:28.657Z,0
2017-06-15T00:36:28.653Z,0
2017-06-15T00:37:28.838Z,0
2017-06-15T00:38:28.651Z,0
2017-06-15T00:39:28.711Z,0
2017-06-15T00:40:28.746Z,0
2017-06-15T00:41:28.740Z,0
2017-06-15T00:42:28.655Z,0
2017-06-15T00:43:28.700Z,0
2017-06-15T00:44:28.735Z,0
2017-06-15T00:45:28.723Z,0
2017-06-15T00:46:28.712Z,0
2017-06-15T00:47:28.711Z,0
2017-06-15T00:48:28.712Z,0
2017-06-15T00:49:28.708Z,0
2017-06-15T00:50:28.711Z,0
2017-06-15T00:51:28.711Z,0
2017-06-15T00:52:28.716Z,0
2017-06-15T00:53:28.712Z,0
2017-06-15T00:54:28.717Z,0
2017-06-15T00:55:28.713Z,0
2017-06-15T00:56:28.730Z,0
2017-06-15T00:57:28.757Z,0
2017-06-15T00:58:28.735Z,0
2017-06-15T00:59:28.731Z,0
2017-06-15T01:00:28.660Z,0
2017-06-15T01:01:28.751Z,0
2017-06-15T01:02:28.731Z,0
2017-06-15T01:03:28.760Z,0
2017-06-15T01:04:28.664Z,0
2017-06-15T01:05:28.749Z,0
2017-06-15T01:06:28.671Z,0
2017-06-15T01:07:28.664Z,0
2017-06-15T01:08:28.755Z,0
2017-06-15T01:09:28.761Z,0
2017-06-15T01:10:28.674Z,0
2017-06-15T01:11:28.715Z,0
2017-06-15T01:12:28.743Z,0
2017-06-15T01:13:28.667Z,0
2017-06-15T01:14:28.739Z,0
2017-06-15T01:15:28.744Z,0
2017-06-15T01:16:28.736Z,0
2017-06-15T01:17:28.740Z,0
2017-06-15T01:18:28.738Z,0
2017-06-15T01:19:28.739Z,0
2017-06-15T01:20:28.741Z,0
2017-06-15T01:21:28.745Z,0
2017-06-15T01:22:28.743Z,0
2017-06-15T01:23:28.743Z,0
2017-06-15T01:24:28.746Z,0
2017-06-15T01:25:28.746Z,0
2017-06-15T01:26:28.762Z,0
2017-06-15T01:27:28.726Z,0
2017-06-15T01:28:28.747Z,0
2017-06-15T01:29:28.784Z,0
2017-06-15T01:30:28.745Z,0
2017-06-15T01:31:28.770Z,0
2017-06-15T01:32:28.781Z,0
2017-06-15T01:33:28.774Z,0
2017-06-15T01:34:28.682Z,0
2017-06-15T01:35:28.767Z,0
2017-06-15T01:36:28.681Z,0
2017-06-15T01:37:28.767Z,0
2017-06-15T01:38:28.708Z,0
2017-06-15T01:39:28.765Z,0
2017-06-15T01:40:28.740Z,0
2017-06-15T01:41:28.772Z,0
2017-06-15T01:42:28.780Z,0
2017-06-15T01:43:28.768Z,0
2017-06-15T01:44:28.774Z,0
2017-06-15T01:45:28.762Z,0
2017-06-15T01:46:28.743Z,0
2017-06-15T01:47:28.827Z,0
2017-06-15T01:48:28.765Z,0
2017-06-15T01:49:28.772Z,0
2017-06-15T01:50:28.709Z,0
2017-06-15T01:51:28.753Z,0
2017-06-15T01:52:28.692Z,0
2017-06-15T01:53:28.787Z,0
2017-06-15T01:54:28.772Z,0
2017-06-15T01:55:28.750Z,0
2017-06-15T01:56:28.718Z,0
2017-06-15T01:57:28.687Z,0
2017-06-15T01:58:28.784Z,0
2017-06-15T01:59:28.691Z,0
2017-06-15T02:00:28.720Z,0
2017-06-15T02:01:28.788Z,0
2017-06-15T02:02:28.719Z,0
2017-06-15T02:03:28.719Z,0
2017-06-15T02:04:28.719Z,0
2017-06-15T02:05:28.696Z,0
2017-06-15T02:06:28.701Z,0
2017-06-15T02:07:28.768Z,0
2017-06-15T02:08:28.793Z,0
2017-06-15T02:09:28.772Z,0
2017-06-15T02:10:28.771Z,0
2017-06-15T02:11:28.769Z,0
2017-06-15T02:12:28.772Z,0
2017-06-15T02:13:28.849Z,0
2017-06-15T02:14:28.770Z,0
2017-06-15T02:15:28.770Z,0
2017-06-15T02:16:28.796Z,0
2017-06-15T02:17:28.725Z,0
2017-06-15T02:18:28.706Z,0
2017-06-15T02:19:28.785Z,0
2017-06-15T02:20:28.794Z,0
2017-06-15T02:21:28.787Z,0
2017-06-15T02:22:28.797Z,0
2017-06-15T02:23:28.800Z,0
2017-06-15T02:24:29.000Z,0
2017-06-15T02:25:28.784Z,0
2017-06-15T02:26:28.734Z,0
2017-06-15T02:27:28.694Z,0
2017-06-15T02:28:28.681Z,0
2017-06-15T02:29:28.679Z,0
2017-06-15T02:30:28.771Z,0
2017-06-15T02:31:28.663Z,0
2017-06-15T02:32:28.792Z,0
2017-06-15T02:33:28.773Z,0
2017-06-15T02:34:28.680Z,0
2017-06-15T02:35:28.774Z,0
2017-06-15T02:36:28.805Z,0
2017-06-15T02:37:28.714Z,0
2017-06-15T02:38:28.722Z,0
2017-06-15T02:39:28.810Z,0
2017-06-15T02:40:28.771Z,0
2017-06-15T02:41:28.716Z,0
2017-06-15T02:42:28.724Z,0
2017-06-15T02:43:28.797Z,0
2017-06-15T02:44:28.802Z,0
2017-06-15T02:45:28.794Z,0
2017-06-15T02:46:28.799Z,0
2017-06-15T02:47:28.813Z,0
2017-06-15T02:48:28.803Z,0
2017-06-15T02:49:28.779Z,0
2017-06-15T02:50:28.808Z,0
2017-06-15T02:51:28.773Z,0
2017-06-15T02:52:28.810Z,0
2017-06-15T02:53:28.816Z,0
2017-06-15T02:54:28.797Z,0
2017-06-15T02:55:28.833Z,0
2017-06-15T02:56:28.773Z,0
2017-06-15T02:57:28.727Z,0
2017-06-15T02:58:28.812Z,0
2017-06-15T02:59:28.807Z,0
2017-06-15T03:00:28.782Z,0
2017-06-15T03:01:28.804Z,0
2017-06-15T03:02:28.727Z,0
2017-06-15T03:03:28.784Z,0
2017-06-15T03:04:28.814Z,0
2017-06-15T03:05:28.735Z,0
2017-06-15T03:06:28.815Z,0
2017-06-15T03:07:28.804Z,0
2017-06-15T03:08:28.804Z,0
2017-06-15T03:09:28.801Z,0
2017-06-15T03:10:28.804Z,0
2017-06-15T03:11:28.806Z,0
2017-06-15T03:12:28.806Z,0
2017-06-15T03:13:28.804Z,0
2017-06-15T03:14:28.805Z,0
2017-06-15T03:15:28.805Z,0
2017-06-15T03:16:28.791Z,0
2017-06-15T03:17:28.816Z,0
2017-06-15T03:18:28.794Z,0
2017-06-15T03:19:28.792Z,0
2017-06-15T03:20:28.894Z,0
2017-06-15T03:21:28.793Z,0
2017-06-15T03:22:28.792Z,0
2017-06-15T03:23:28.794Z,0
2017-06-15T03:24:28.797Z,0
2017-06-15T03:25:28.793Z,0
2017-06-15T03:26:28.825Z,0
2017-06-15T03:27:28.824Z,0
2017-06-15T03:28:28.820Z,0
2017-06-15T03:29:28.830Z,0
2017-06-15T03:30:28.746Z,0
2017-06-15T03:31:28.789Z,0
2017-06-15T03:32:28.932Z,0
2017-06-15T03:33:28.812Z,0
2017-06-15T03:34:28.812Z,0
2017-06-15T03:35:28.830Z,0
2017-06-15T03:36:28.829Z,0
2017-06-15T03:37:28.809Z,0
2017-06-15T03:38:28.836Z,0
2017-06-15T03:39:28.826Z,0
2017-06-15T03:40:28.812Z,0
2017-06-15T03:41:28.750Z,9
2017-06-15T03:42:28.834Z,16
2017-06-15T03:43:28.744Z,18
2017-06-15T03:44:28.834Z,18
2017-06-15T03:45:28.745Z,19
2017-06-15T03:46:28.805Z,20
2017-06-15T03:47:28.803Z,20
2017-06-15T03:48:28.803Z,20
2017-06-15T03:49:28.811Z,21
2017-06-15T03:50:28.805Z,21
2017-06-15T03:51:28.805Z,21
2017-06-15T03:52:28.808Z,21
2017-06-15T03:53:28.810Z,22
2017-06-15T03:54:28.908Z,21
2017-06-15T03:55:28.808Z,22
2017-06-15T03:56:28.809Z,22
2017-06-15T03:57:28.810Z,23
2017-06-15T03:58:28.811Z,24
2017-06-15T03:59:28.811Z,25
2017-06-15T04:00:28.812Z,24
2017-06-15T04:01:28.826Z,25
2017-06-15T04:02:28.813Z,26
2017-06-15T04:03:28.841Z,26
2017-06-15T04:04:28.851Z,27
2017-06-15T04:05:28.817Z,27
2017-06-15T04:06:28.789Z,26
2017-06-15T04:07:28.852Z,27
2017-06-15T04:08:28.811Z,28
2017-06-15T04:09:28.848Z,28
2017-06-15T04:10:28.768Z,28
2017-06-15T04:11:28.772Z,28
2017-06-15T04:12:28.830Z,28
2017-06-15T04:13:28.852Z,27
2017-06-15T04:14:28.771Z,28
2017-06-15T04:15:28.767Z,28
2017-06-15T04:16:28.838Z,28
2017-06-15T04:17:28.834Z,27
2017-06-15T04:18:28.832Z,26
2017-06-15T04:19:28.836Z,26
2017-06-15T04:20:28.836Z,27
2017-06-15T04:21:28.840Z,27
2017-06-15T04:22:28.838Z,27
2017-06-15T04:23:28.838Z,28
2017-06-15T04:24:28.838Z,27
2017-06-15T04:25:28.842Z,29
2017-06-15T04:26:28.841Z,31
2017-06-15T04:27:28.841Z,32
2017-06-15T04:28:28.845Z,33
2017-06-15T04:29:28.842Z,34
2017-06-15T04:30:28.842Z,34
2017-06-15T04:31:28.841Z,30
2017-06-15T04:32:28.842Z,38
2017-06-15T04:33:28.840Z,39
2017-06-15T04:34:28.766Z,40
2017-06-15T04:35:28.840Z,41
2017-06-15T04:36:28.843Z,40
2017-06-15T04:37:28.833Z,42
2017-06-15T04:38:28.837Z,43
2017-06-15T04:39:28.834Z,44
2017-06-15T04:40:28.837Z,46
2017-06-15T04:41:28.835Z,46
2017-06-15T04:42:28.839Z,47
2017-06-15T04:43:28.837Z,48
2017-06-15T04:44:28.836Z,48
2017-06-15T04:45:28.838Z,49
2017-06-15T04:46:28.941Z,50
2017-06-15T04:47:28.849Z,51
2017-06-15T04:48:28.855Z,53
2017-06-15T04:49:28.852Z,53
2017-06-15T04:50:28.958Z,55
2017-06-15T04:51:28.961Z,56
2017-06-15T04:52:28.855Z,57
2017-06-15T04:53:28.861Z,58
2017-06-15T04:54:28.799Z,59
2017-06-15T04:55:28.858Z,60
2017-06-15T04:56:28.858Z,62
2017-06-15T04:57:28.856Z,64
2017-06-15T04:58:28.875Z,65
2017-06-15T04:59:28.869Z,66
2017-06-15T05:00:28.788Z,67
2017-06-15T05:01:28.977Z,68
2017-06-15T05:02:28.879Z,71
2017-06-15T05:03:28.795Z,73
2017-06-15T05:04:28.873Z,76
2017-06-15T05:05:28.888Z,76
2017-06-15T05:06:28.879Z,72
2017-06-15T05:07:28.775Z,73
2017-06-15T05:08:28.825Z,80
2017-06-15T05:09:28.788Z,82
2017-06-15T05:10:28.791Z,83
2017-06-15T05:11:28.785Z,83
2017-06-15T05:12:28.787Z,82
2017-06-15T05:13:28.827Z,84
2017-06-15T05:14:28.795Z,88
2017-06-15T05:15:28.839Z,92
2017-06-15T05:16:28.778Z,92
2017-06-15T05:17:28.893Z,93
2017-06-15T05:18:28.826Z,95
2017-06-15T05:19:28.836Z,94
2017-06-15T05:20:28.792Z,95
2017-06-15T05:21:28.783Z,100
2017-06-15T05:22:28.875Z,103
2017-06-15T05:23:28.807Z,104
2017-06-15T05:24:28.790Z,105
2017-06-15T05:25:28.800Z,103
2017-06-15T05:26:28.832Z,102
2017-06-15T05:27:28.813Z,108
2017-06-15T05:28:28.892Z,110
2017-06-15T05:29:28.809Z,111
2017-06-15T05:30:28.869Z,112
2017-06-15T05:31:28.853Z,110
2017-06-15T05:32:28.853Z,111
2017-06-15T05:33:28.887Z,113
2017-06-15T05:34:28.904Z,115
2017-06-15T05:35:28.820Z,115
2017-06-15T05:36:28.895Z,116
2017-06-15T05:37:28.898Z,116
2017-06-15T05:38:28.899Z,116
2017-06-15T05:39:28.893Z,108
2017-06-15T05:40:28.878Z,117
2017-06-15T05:41:28.897Z,118
2017-06-15T05:42:28.808Z,118
2017-06-15T05:43:28.811Z,118
2017-06-15T05:44:28.861Z,117
2017-06-15T05:45:28.898Z,118
2017-06-15T05:46:28.817Z,117
2017-06-15T05:47:28.874Z,117
2017-06-15T05:48:28.873Z,115
2017-06-15T05:49:28.872Z,113
2017-06-15T05:50:28.875Z,112
2017-06-15T05:51:28.872Z,110
2017-06-15T05:52:28.878Z,111
2017-06-15T05:53:28.873Z,111
2017-06-15T05:54:28.880Z,112
2017-06-15T05:55:28.877Z,112
2017-06-15T05:56:28.876Z,114
2017-06-15T05:57:28.821Z,111
2017-06-15T05:58:28.907Z,115
2017-06-15T05:59:28.909Z,117
2017-06-15T06:00:28.913Z,118
2017-06-15T06:01:28.825Z,120
2017-06-15T06:02:28.912Z,121
2017-06-15T06:03:28.903Z,123
2017-06-15T06:04:28.914Z,115
2017-06-15T06:05:28.968Z,125
2017-06-15T06:06:28.839Z,125
2017-06-15T06:07:28.875Z,125
2017-06-15T06:08:28.875Z,127
2017-06-15T06:09:28.890Z,124
2017-06-15T06:10:28.917Z,125
2017-06-15T06:11:28.828Z,123
2017-06-15T06:12:28.894Z,120
2017-06-15T06:13:28.917Z,120
2017-06-15T06:14:28.916Z,118
2017-06-15T06:15:28.941Z,116
2017-06-15T06:16:28.914Z,114
2017-06-15T06:17:28.837Z,117
2017-06-15T06:18:28.914Z,117
2017-06-15T06:19:28.837Z,117
2017-06-15T06:20:28.931Z,116
2017-06-15T06:21:28.918Z,116
2017-06-15T06:22:28.921Z,113
2017-06-15T06:23:28.900Z,147
2017-06-15T06:24:28.842Z,150
2017-06-15T06:25:28.931Z,138
2017-06-15T06:26:28.928Z,128
2017-06-15T06:27:28.925Z,173
2017-06-15T06:28:28.840Z,201
2017-06-15T06:29:28.923Z,208
2017-06-15T06:30:28.931Z,211
2017-06-15T06:31:28.934Z,203
2017-06-15T06:32:28.853Z,205
2017-06-15T06:33:28.923Z,207
2017-06-15T06:34:28.937Z,192
2017-06-15T06:35:28.847Z,219
2017-06-15T06:36:28.842Z,187
2017-06-15T06:37:28.923Z,265
2017-06-15T06:38:28.926Z,283
2017-06-15T06:39:28.930Z,310
2017-06-15T06:40:28.926Z,324
2017-06-15T06:41:28.934Z,296
2017-06-15T06:42:28.929Z,323
2017-06-15T06:43:28.939Z,347
2017-06-15T06:44:28.896Z,393
2017-06-15T06:45:28.934Z,389
2017-06-15T06:46:28.934Z,389
2017-06-15T06:47:28.916Z,215
2017-06-15T06:48:29.015Z,410
2017-06-15T06:49:28.914Z,395
2017-06-15T06:50:28.893Z,373
2017-06-15T06:51:28.917Z,378
2017-06-15T06:52:28.918Z,399
2017-06-15T06:53:29.005Z,394
2017-06-15T06:54:28.917Z,457
2017-06-15T06:55:28.919Z,453
2017-06-15T06:56:28.919Z,455
2017-06-15T06:57:28.840Z,449
2017-06-15T06:58:28.947Z,435
2017-06-15T06:59:28.946Z,400
2017-06-15T07:00:28.833Z,425
2017-06-15T07:01:28.899Z,439
2017-06-15T07:02:28.897Z,424
2017-06-15T07:03:28.903Z,424
2017-06-15T07:04:28.830Z,429
2017-06-15T07:05:28.893Z,480
2017-06-15T07:06:28.838Z,457
2017-06-15T07:07:28.923Z,553
2017-06-15T07:08:28.925Z,593
2017-06-15T07:09:28.923Z,665
2017-06-15T07:10:28.926Z,635
2017-06-15T07:11:28.932Z,557
2017-06-15T07:12:29.010Z,565
2017-06-15T07:13:28.933Z,592
2017-06-15T07:14:28.932Z,539
2017-06-15T07:15:28.957Z,545
2017-06-15T07:16:28.928Z,525
2017-06-15T07:17:28.936Z,521
2017-06-15T07:18:28.933Z,617
2017-06-15T07:19:28.930Z,590
2017-06-15T07:20:28.932Z,665
2017-06-15T07:21:29.036Z,714
2017-06-15T07:22:28.937Z,763
2017-06-15T07:23:28.937Z,725
2017-06-15T07:24:28.934Z,681
2017-06-15T07:25:28.939Z,637
2017-06-15T07:26:28.938Z,628
2017-06-15T07:27:28.959Z,607
2017-06-15T07:28:28.934Z,595
2017-06-15T07:29:28.956Z,618
2017-06-15T07:30:28.949Z,636
2017-06-15T07:31:28.955Z,680
2017-06-15T07:32:28.958Z,703
2017-06-15T07:33:28.972Z,712
2017-06-15T07:34:28.880Z,709
2017-06-15T07:35:28.918Z,715
2017-06-15T07:36:28.960Z,729
2017-06-15T07:37:28.883Z,617
2017-06-15T07:38:28.880Z,762
2017-06-15T07:39:28.960Z,698
2017-06-15T07:40:28.958Z,662
2017-06-15T07:41:28.885Z,719
2017-06-15T07:42:28.956Z,710
2017-06-15T07:43:28.963Z,748
2017-06-15T07:44:28.976Z,651
2017-06-15T07:45:28.973Z,735
2017-06-15T07:46:28.968Z,712
2017-06-15T07:47:28.950Z,790
2017-06-15T07:48:28.950Z,810
2017-06-15T07:49:28.950Z,636
2017-06-15T07:50:28.950Z,748
2017-06-15T07:51:28.954Z,788
2017-06-15T07:52:28.951Z,784
2017-06-15T07:53:29.055Z,774
2017-06-15T07:54:28.951Z,736
2017-06-15T07:55:29.034Z,766
2017-06-15T07:56:28.952Z,749
2017-06-15T07:57:28.955Z,770
2017-06-15T07:58:28.940Z,728
2017-06-15T07:59:28.942Z,707
2017-06-15T08:00:28.943Z,733
2017-06-15T08:01:28.946Z,798
2017-06-15T08:02:28.944Z,832
2017-06-15T08:03:28.945Z,846
2017-06-15T08:04:28.946Z,865
2017-06-15T08:05:28.951Z,879
2017-06-15T08:06:29.046Z,865
2017-06-15T08:07:28.976Z,838
2017-06-15T08:08:29.101Z,783
2017-06-15T08:09:28.981Z,765
2017-06-15T08:10:28.901Z,721
2017-06-15T08:11:28.955Z,694
2017-06-15T08:12:28.897Z,711
2017-06-15T08:13:28.896Z,748
2017-06-15T08:14:28.943Z,830
2017-06-15T08:15:28.983Z,895
2017-06-15T08:16:28.979Z,682
2017-06-15T08:17:28.981Z,645
2017-06-15T08:18:28.985Z,673
2017-06-15T08:19:28.908Z,729
2017-06-15T08:20:28.985Z,847
2017-06-15T08:21:28.907Z,840
2017-06-15T08:22:28.950Z,824
2017-06-15T08:23:28.948Z,832
2017-06-15T08:24:28.907Z,789
2017-06-15T08:25:28.904Z,775
2017-06-15T08:26:28.985Z,772
2017-06-15T08:27:28.983Z,796
2017-06-15T08:28:28.971Z,777
2017-06-15T08:29:28.970Z,783
2017-06-15T08:30:28.973Z,807
2017-06-15T08:31:28.967Z,771
2017-06-15T08:32:28.975Z,750
2017-06-15T08:33:28.973Z,746
2017-06-15T08:34:28.978Z,749
2017-06-15T08:35:28.975Z,719
2017-06-15T08:36:28.977Z,768
2017-06-15T08:37:28.986Z,771
2017-06-15T08:38:28.975Z,767
2017-06-15T08:39:28.915Z,756
2017-06-15T08:40:28.916Z,770
2017-06-15T08:41:28.912Z,747
2017-06-15T08:42:29.002Z,715
2017-06-15T08:43:29.003Z,701
2017-06-15T08:44:28.989Z,747
2017-06-15T08:45:28.994Z,771
2017-06-15T08:46:28.918Z,886
2017-06-15T08:47:29.003Z,891
2017-06-15T08:48:28.906Z,853
2017-06-15T08:49:28.893Z,811
2017-06-15T08:50:28.946Z,812
2017-06-15T08:51:28.990Z,825
2017-06-15T08:52:28.998Z,759
2017-06-15T08:53:28.902Z,849
2017-06-15T08:54:28.885Z,909
2017-06-15T08:55:28.910Z,885
2017-06-15T08:56:28.987Z,952
2017-06-15T08:57:28.917Z,930
2017-06-15T08:58:28.987Z,953
2017-06-15T08:59:28.990Z,971
2017-06-15T09:00:29.004Z,927
2017-06-15T09:01:28.991Z,905
2017-06-15T09:02:28.995Z,902
2017-06-15T09:03:28.987Z,848
2017-06-15T09:04:28.972Z,796
2017-06-15T09:05:28.981Z,806
2017-06-15T09:06:29.006Z,776
2017-06-15T09:07:28.991Z,749
2017-06-15T09:08:28.997Z,804
2017-06-15T09:09:28.993Z,851
2017-06-15T09:10:28.991Z,865
2017-06-15T09:11:28.998Z,888
2017-06-15T09:12:28.993Z,732
2017-06-15T09:13:28.995Z,788
2017-06-15T09:14:28.997Z,902
2017-06-15T09:15:28.999Z,893
2017-06-15T09:16:29.000Z,853
2017-06-15T09:17:28.994Z,864
2017-06-15T09:18:28.999Z,817
2017-06-15T09:19:28.994Z,844
2017-06-15T09:20:28.995Z,841
2017-06-15T09:21:28.999Z,868
2017-06-15T09:22:28.995Z,864
2017-06-15T09:23:28.920Z,822
2017-06-15T09:24:28.920Z,791
2017-06-15T09:25:28.905Z,832
2017-06-15T09:26:28.922Z,845
2017-06-15T09:27:28.921Z,850
2017-06-15T09:28:28.919Z,881
2017-06-15T09:29:28.904Z,889
2017-06-15T09:30:28.923Z,854
2017-06-15T09:31:28.850Z,848
2017-06-15T09:32:28.922Z,857
2017-06-15T09:33:28.980Z,847
2017-06-15T09:34:29.007Z,833
2017-06-15T09:35:28.920Z,846
2017-06-15T09:36:29.008Z,863
2017-06-15T09:37:29.013Z,858
2017-06-15T09:38:29.012Z,846
2017-06-15T09:39:29.037Z,845
2017-06-15T09:40:29.011Z,835
2017-06-15T09:41:29.037Z,798
2017-06-15T09:42:29.013Z,846
2017-06-15T09:43:29.013Z,859
2017-06-15T09:44:29.012Z,868
2017-06-15T09:45:29.015Z,872
2017-06-15T09:46:29.012Z,892
2017-06-15T09:47:29.014Z,863
2017-06-15T09:48:29.014Z,854
2017-06-15T09:49:29.012Z,713
2017-06-15T09:50:29.016Z,713
2017-06-15T09:51:29.014Z,674
2017-06-15T09:52:29.012Z,690
2017-06-15T09:53:29.012Z,817
2017-06-15T09:54:29.019Z,851
2017-06-15T09:55:29.018Z,852
2017-06-15T09:56:29.017Z,896
2017-06-15T09:57:29.025Z,907
2017-06-15T09:58:29.020Z,899
2017-06-15T09:59:29.021Z,931
2017-06-15T10:00:29.021Z,932
2017-06-15T10:01:29.021Z,930
2017-06-15T10:02:29.032Z,934
2017-06-15T10:03:29.021Z,947
2017-06-15T10:04:29.042Z,985
2017-06-15T10:05:29.043Z,981
2017-06-15T10:06:29.043Z,956
2017-06-15T10:07:29.051Z,939
2017-06-15T10:08:28.959Z,906
2017-06-15T10:09:29.097Z,883
2017-06-15T10:10:29.040Z,860
2017-06-15T10:11:29.054Z,868
2017-06-15T10:12:29.053Z,871
2017-06-15T10:13:29.057Z,861
2017-06-15T10:14:29.013Z,860
2017-06-15T10:15:28.959Z,878
2017-06-15T10:16:29.008Z,907
2017-06-15T10:17:29.008Z,916
2017-06-15T10:18:28.960Z,925
2017-06-15T10:19:29.052Z,929
2017-06-15T10:20:29.153Z,927
2017-06-15T10:21:29.056Z,923
2017-06-15T10:22:29.048Z,911
2017-06-15T10:23:29.035Z,959
2017-06-15T10:24:29.034Z,892
2017-06-15T10:25:28.997Z,1003
2017-06-15T10:26:29.031Z,1000
2017-06-15T10:27:29.055Z,1000
2017-06-15T10:28:28.970Z,995
2017-06-15T10:29:29.057Z,1018
2017-06-15T10:30:28.977Z,1038
2017-06-15T10:31:28.973Z,1029
2017-06-15T10:32:28.967Z,1026
2017-06-15T10:33:29.016Z,995
2017-06-15T10:34:29.030Z,937
2017-06-15T10:35:29.053Z,890
2017-06-15T10:36:29.026Z,926
2017-06-15T10:37:29.028Z,967
2017-06-15T10:38:29.029Z,992
2017-06-15T10:39:29.035Z,874
2017-06-15T10:40:29.033Z,863
2017-06-15T10:41:29.031Z,865
2017-06-15T10:42:29.133Z,864
2017-06-15T10:43:29.033Z,935
2017-06-15T10:44:29.032Z,1001
2017-06-15T10:45:29.036Z,1028
2017-06-15T10:46:29.032Z,1015
2017-06-15T10:47:29.037Z,1054
2017-06-15T10:48:29.035Z,1040
2017-06-15T10:49:29.036Z,980
2017-06-15T10:50:29.038Z,925
2017-06-15T10:51:29.034Z,867
2017-06-15T10:52:29.042Z,907
2017-06-15T10:53:29.038Z,957
2017-06-15T10:54:29.068Z,931
2017-06-15T10:55:28.989Z,906
2017-06-15T10:56:29.070Z,926
2017-06-15T10:57:29.065Z,927
2017-06-15T10:58:29.076Z,931
2017-06-15T10:59:29.082Z,941
2017-06-15T11:00:29.041Z,944
2017-06-15T11:01:28.982Z,923
2017-06-15T11:02:28.989Z,941
2017-06-15T11:03:29.054Z,933
2017-06-15T11:04:29.059Z,932
2017-06-15T11:05:29.060Z,940
2017-06-15T11:06:29.060Z,924
2017-06-15T11:07:29.061Z,917
2017-06-15T11:08:29.061Z,918
2017-06-15T11:09:29.061Z,687
2017-06-15T11:10:29.059Z,888
2017-06-15T11:11:29.053Z,859
2017-06-15T11:12:29.061Z,856
2017-06-15T11:13:29.061Z,888
2017-06-15T11:14:29.046Z,890
2017-06-15T11:15:29.046Z,907
2017-06-15T11:16:29.048Z,724
2017-06-15T11:17:29.046Z,704
2017-06-15T11:18:29.050Z,791
2017-06-15T11:19:29.047Z,874
2017-06-15T11:20:29.050Z,821
2017-06-15T11:21:29.050Z,895
2017-06-15T11:22:29.052Z,776
2017-06-15T11:23:29.050Z,587
2017-06-15T11:24:28.988Z,541
2017-06-15T11:25:29.027Z,536
2017-06-15T11:26:29.026Z,582
2017-06-15T11:27:29.026Z,630
2017-06-15T11:28:28.996Z,640
2017-06-15T11:29:28.979Z,802
2017-06-15T11:30:29.033Z,795
2017-06-15T11:31:28.996Z,796
2017-06-15T11:32:29.093Z,803
2017-06-15T11:33:29.049Z,860
2017-06-15T11:34:29.008Z,897
2017-06-15T11:35:29.014Z,895
2017-06-15T11:36:29.005Z,914
2017-06-15T11:37:29.049Z,895
2017-06-15T11:38:29.085Z,842
2017-06-15T11:39:29.093Z,829
2017-06-15T11:40:29.100Z,869
2017-06-15T11:41:29.099Z,887
2017-06-15T11:42:29.095Z,955
2017-06-15T11:43:29.067Z,980
2017-06-15T11:44:29.095Z,967
2017-06-15T11:45:29.053Z,1030
2017-06-15T11:46:29.057Z,1012
2017-06-15T11:47:29.098Z,1006
2017-06-15T11:48:29.095Z,979
2017-06-15T11:49:29.015Z,901
2017-06-15T11:50:29.018Z,905
2017-06-15T11:51:29.015Z,917
2017-06-15T11:52:29.077Z,953
2017-06-15T11:53:29.098Z,949
2017-06-15T11:54:29.000Z,984
2017-06-15T11:55:29.043Z,1013
2017-06-15T11:56:29.005Z,993
2017-06-15T11:57:29.045Z,909
2017-06-15T11:58:29.005Z,1040
2017-06-15T11:59:29.001Z,767
2017-06-15T12:00:29.011Z,1083
2017-06-15T12:01:29.047Z,1026
2017-06-15T12:02:29.005Z,1037
2017-06-15T12:03:29.047Z,1083
2017-06-15T12:04:29.103Z,1076
2017-06-15T12:05:29.092Z,872
2017-06-15T12:06:29.092Z,973
2017-06-15T12:07:29.089Z,1067
2017-06-15T12:08:29.091Z,996
2017-06-15T12:09:29.093Z,894
2017-06-15T12:10:29.093Z,1032
2017-06-15T12:11:29.094Z,1126
2017-06-15T12:12:29.093Z,1046
2017-06-15T12:13:29.096Z,1064
2017-06-15T12:14:29.081Z,1167
2017-06-15T12:15:29.082Z,903
2017-06-15T12:16:29.085Z,825
2017-06-15T12:17:29.084Z,982
2017-06-15T12:18:29.085Z,561
2017-06-15T12:19:29.085Z,524
2017-06-15T12:20:29.085Z,480
2017-06-15T12:21:29.085Z,472
2017-06-15T12:22:29.088Z,489
2017-06-15T12:23:29.087Z,451
2017-06-15T12:24:29.122Z,611
2017-06-15T12:25:29.094Z,496
2017-06-15T12:26:29.117Z,443
2017-06-15T12:27:29.081Z,432
2017-06-15T12:28:29.117Z,439
2017-06-15T12:29:29.079Z,423
2017-06-15T12:30:29.121Z,422
2017-06-15T12:31:29.120Z,435
2017-06-15T12:32:29.098Z,469
2017-06-15T12:33:29.123Z,573
2017-06-15T12:34:29.031Z,759
2017-06-15T12:35:29.122Z,472
2017-06-15T12:36:29.101Z,422
2017-06-15T12:37:29.036Z,388
2017-06-15T12:38:29.126Z,366
2017-06-15T12:39:29.124Z,346
2017-06-15T12:40:29.047Z,324
2017-06-15T12:41:29.128Z,305
2017-06-15T12:42:29.128Z,292
2017-06-15T12:43:29.092Z,288
2017-06-15T12:44:29.130Z,291
2017-06-15T12:45:29.102Z,300
2017-06-15T12:46:29.098Z,318
2017-06-15T12:47:29.100Z,343
2017-06-15T12:48:29.099Z,372
2017-06-15T12:49:29.102Z,401
2017-06-15T12:50:29.101Z,428
2017-06-15T12:51:29.103Z,465
2017-06-15T12:52:29.097Z,520
2017-06-15T12:53:29.104Z,505
2017-06-15T12:54:29.202Z,509
2017-06-15T12:55:29.138Z,494
2017-06-15T12:56:29.100Z,482
2017-06-15T12:57:29.136Z,472
2017-06-15T12:58:29.137Z,465
2017-06-15T12:59:29.062Z,455
2017-06-15T13:00:29.130Z,448
2017-06-15T13:01:29.058Z,453
2017-06-15T13:02:29.147Z,442
2017-06-15T13:03:29.090Z,433
2017-06-15T13:04:29.131Z,419
2017-06-15T13:05:29.121Z,399
2017-06-15T13:06:29.120Z,379
2017-06-15T13:07:29.226Z,377
2017-06-15T13:08:29.133Z,388
2017-06-15T13:09:29.125Z,405
2017-06-15T13:10:29.126Z,431
2017-06-15T13:11:29.127Z,466
2017-06-15T13:12:29.124Z,446
2017-06-15T13:13:29.128Z,430
2017-06-15T13:14:29.128Z,350
2017-06-15T13:15:29.122Z,331
2017-06-15T13:16:29.124Z,312
2017-06-15T13:17:29.128Z,296
2017-06-15T13:18:29.134Z,287
2017-06-15T13:19:29.129Z,284
2017-06-15T13:20:29.129Z,292
2017-06-15T13:21:29.131Z,312
2017-06-15T13:22:29.128Z,335
2017-06-15T13:23:29.131Z,354
2017-06-15T13:24:29.128Z,358
2017-06-15T13:25:29.144Z,357
2017-06-15T13:26:29.153Z,354
2017-06-15T13:27:29.146Z,359
2017-06-15T13:28:29.059Z,370
2017-06-15T13:29:29.162Z,399
2017-06-15T13:30:29.111Z,441
2017-06-15T13:31:29.112Z,520
2017-06-15T13:32:29.064Z,517
2017-06-15T13:33:29.136Z,499
2017-06-15T13:34:29.163Z,504
2017-06-15T13:35:29.139Z,520
2017-06-15T13:36:29.137Z,543
2017-06-15T13:37:29.143Z,526
2017-06-15T13:38:29.141Z,534
2017-06-15T13:40:29.141Z,532
2017-06-15T13:41:29.141Z,560
2017-06-15T13:42:29.100Z,1054
2017-06-15T13:43:29.139Z,625
2017-06-15T13:44:29.144Z,643
2017-06-15T13:45:29.141Z,836
2017-06-15T13:46:29.146Z,1252
2017-06-15T13:47:29.141Z,1230
2017-06-15T13:48:29.149Z,1185
2017-06-15T13:49:29.146Z,1161
2017-06-15T13:50:29.145Z,1139
2017-06-15T13:51:29.090Z,1118
2017-06-15T13:52:29.151Z,1099
2017-06-15T13:53:29.150Z,1083
2017-06-15T13:54:29.151Z,1061
2017-06-15T13:55:29.150Z,1047
2017-06-15T13:56:29.151Z,1038
2017-06-15T13:57:29.149Z,1024
2017-06-15T13:59:29.165Z,749
2017-06-15T14:00:29.143Z,339
2017-06-15T14:01:29.150Z,309
2017-06-15T14:02:29.149Z,337
2017-06-15T14:03:29.154Z,492
2017-06-15T14:04:29.151Z,460
2017-06-15T14:05:29.147Z,423